Time;durP1;ratioP1;P1;durP2;ratioP2;P2;SDS_P1;SDS_P2;PMS_P1;PMS_P2;Temp;Humidity;BMP_temperature;BMP_pressure;BME280_temperature;BME280_humidity;BME280_pressure;Samples;Min_cycle;Max_cycle;Signal;HPM_P1;HPM_P2
2020/12/18 00:01:26;;;;;;;22.63;12.13;;;-0.10;99.90;;;;;;5013444;28;20036;-77
2020/12/18 00:03:52;;;;;;;27.55;13.85;;;-0.10;99.90;;;;;;5013316;28;20033;-77
2020/12/18 00:06:18;;;;;;;27.60;13.07;;;-0.20;99.90;;;;;;5012389;28;20036;-76
2020/12/18 00:08:44;;;;;;;28.20;13.60;;;-0.20;99.90;;;;;;5013150;28;20026;-77
2020/12/18 00:11:10;;;;;;;24.95;11.55;;;-0.30;99.90;;;;;;5013250;28;20025;-77
2020/12/18 00:13:37;;;;;;;23.08;11.52;;;-0.20;99.90;;;;;;5013161;28;20021;-77
2020/12/18 00:16:02;;;;;;;26.60;12.50;;;-0.20;99.90;;;;;;5012313;28;20500;-77
2020/12/18 00:18:28;;;;;;;23.58;12.25;;;-0.20;99.90;;;;;;5030541;28;20030;-77
2020/12/18 00:20:53;;;;;;;24.98;11.50;;;-0.20;99.90;;;;;;5012836;28;20055;-76
2020/12/18 00:23:19;;;;;;;28.80;12.45;;;-0.20;99.90;;;;;;5012985;28;20018;-76
2020/12/18 00:25:49;;;;;;;20.58;11.98;;;-0.30;99.90;;;;;;5013676;28;20052;-77
2020/12/18 00:28:15;;;;;;;22.33;11.35;;;-0.40;99.90;;;;;;5015964;28;20112;-77
2020/12/18 00:30:41;;;;;;;21.75;11.70;;;-0.50;99.90;;;;;;5034150;28;20053;-77
2020/12/18 00:33:07;;;;;;;22.55;11.52;;;-0.50;99.90;;;;;;5034218;28;20022;-77
2020/12/18 00:35:33;;;;;;;20.90;11.10;;;-0.50;99.90;;;;;;5034069;28;20021;-77
2020/12/18 00:37:58;;;;;;;23.05;12.00;;;-0.50;99.90;;;;;;5033665;28;20071;-77
2020/12/18 00:40:24;;;;;;;24.95;11.68;;;-0.50;99.90;;;;;;5016402;28;20022;-77
2020/12/18 00:42:49;;;;;;;24.02;12.38;;;-0.50;99.90;;;;;;5016632;28;20064;-77
2020/12/18 00:45:15;;;;;;;23.77;11.88;;;-0.30;99.90;;;;;;5016432;28;20076;-77
2020/12/18 00:47:40;;;;;;;24.60;10.98;;;-0.40;99.90;;;;;;5033276;28;20035;-77
2020/12/18 00:50:06;;;;;;;20.55;10.88;;;-0.30;99.90;;;;;;5016136;28;20032;-76
2020/12/18 00:52:32;;;;;;;20.55;11.13;;;-0.30;99.90;;;;;;5015992;28;20022;-77
2020/12/18 00:54:57;;;;;;;26.52;11.23;;;-0.50;99.90;;;;;;5033605;28;20053;-77
2020/12/18 00:57:24;;;;;;;24.00;12.20;;;-0.60;99.90;;;;;;5033183;28;20092;-76
2020/12/18 00:59:49;;;;;;;23.77;11.73;;;-0.60;99.90;;;;;;5033963;28;20032;-77
2020/12/18 01:02:15;;;;;;;25.90;12.40;;;-0.70;99.90;;;;;;5016279;28;20033;-77
2020/12/18 01:04:41;;;;;;;22.80;11.63;;;-0.80;99.90;;;;;;5033512;28;20439;-77
2020/12/18 01:07:06;;;;;;;21.90;11.18;;;-0.90;99.90;;;;;;5015098;28;20029;-76
2020/12/18 01:09:32;;;;;;;22.88;11.75;;;-1.00;99.90;;;;;;5015678;28;20053;-77
2020/12/18 01:11:57;;;;;;;27.40;11.82;;;-0.90;99.90;;;;;;5015733;28;20029;-77
2020/12/18 01:14:23;;;;;;;23.42;12.20;;;-1.00;99.90;;;;;;5015642;28;20071;-76
2020/12/18 01:16:50;;;;;;;24.73;11.75;;;-0.90;99.90;;;;;;5014859;28;20061;-76
2020/12/18 01:19:15;;;;;;;22.70;10.85;;;-0.90;99.90;;;;;;5031989;28;20036;-77
2020/12/18 01:21:41;;;;;;;21.33;11.30;;;-0.60;99.90;;;;;;5015400;28;20038;-76
2020/12/18 01:24:06;;;;;;;23.05;11.07;;;-0.70;99.90;;;;;;5015378;28;20385;-76
2020/12/18 01:26:32;;;;;;;24.77;11.82;;;-0.80;99.90;;;;;;5032625;28;20033;-77
2020/12/18 01:28:57;;;;;;;22.58;11.73;;;-0.80;99.90;;;;;;5033649;28;20096;-76
2020/12/18 01:31:23;;;;;;;20.23;10.27;;;-0.70;99.90;;;;;;5015188;28;20045;-76
2020/12/18 01:33:51;;;;;;;23.52;11.40;;;-0.90;99.90;;;;;;5015061;28;20486;-76
2020/12/18 01:36:18;;;;;;;24.40;11.55;;;-1.10;99.90;;;;;;5014113;28;20022;-77
2020/12/18 01:38:44;;;;;;;24.80;11.80;;;-1.10;99.90;;;;;;5015144;28;20496;-77
2020/12/18 01:41:09;;;;;;;23.20;12.30;;;-1.10;99.90;;;;;;5014946;28;20060;-77
2020/12/18 01:43:36;;;;;;;24.30;11.25;;;-1.20;99.90;;;;;;5032672;28;20487;-76
2020/12/18 01:46:09;;;;;;;22.67;10.93;;;-1.30;99.90;;;;;;5014463;28;20021;-76
2020/12/18 01:48:35;;;;;;;23.13;11.73;;;-1.30;99.90;;;;;;5014771;28;20391;-76
2020/12/18 01:51:01;;;;;;;22.67;11.68;;;-1.10;99.90;;;;;;5014885;28;20030;-76
2020/12/18 01:53:27;;;;;;;22.35;10.38;;;-0.90;99.90;;;;;;5014819;28;20022;-77
2020/12/18 01:55:54;;;;;;;19.98;10.50;;;-0.80;99.90;;;;;;5014597;28;20049;-77
2020/12/18 01:58:22;;;;;;;21.60;10.27;;;-0.70;99.90;;;;;;5031745;28;20029;-77
2020/12/18 02:00:48;;;;;;;22.73;10.73;;;-0.80;99.90;;;;;;5032393;28;20112;-76
2020/12/18 02:03:14;;;;;;;24.33;11.18;;;-1.00;99.90;;;;;;5014666;28;20025;-76
2020/12/18 02:05:40;;;;;;;25.58;12.10;;;-1.10;99.90;;;;;;5014395;28;20083;-76
2020/12/18 02:08:05;;;;;;;27.88;11.88;;;-1.30;99.90;;;;;;5013918;28;20021;-76
2020/12/18 02:10:31;;;;;;;24.15;12.55;;;-1.50;99.90;;;;;;5014521;28;20025;-76
2020/12/18 02:12:56;;;;;;;30.80;13.65;;;-1.50;99.90;;;;;;5014575;28;20026;-77
2020/12/18 02:15:23;;;;;;;34.38;16.02;;;-1.50;99.90;;;;;;5014391;28;20415;-77
2020/12/18 02:17:49;;;;;;;29.15;13.27;;;-1.50;99.90;;;;;;5030182;28;20034;-77
2020/12/18 02:20:16;;;;;;;47.53;16.70;;;-1.30;99.90;;;;;;5032031;28;20390;-77
2020/12/18 02:22:42;;;;;;;34.13;14.20;;;-1.30;99.90;;;;;;5014250;28;20052;-75
2020/12/18 02:25:09;;;;;;;38.08;15.10;;;-1.10;99.90;;;;;;5032124;28;20495;-76
2020/12/18 02:27:39;;;;;;;44.47;14.73;;;-0.90;99.90;;;;;;5031316;28;20017;-77
2020/12/18 02:30:07;;;;;;;29.20;14.23;;;-0.70;99.90;;;;;;5030697;28;20021;-76
2020/12/18 02:32:32;;;;;;;35.28;15.25;;;-0.60;99.90;;;;;;5014033;28;20022;-75
2020/12/18 02:34:58;;;;;;;29.17;13.57;;;-0.80;99.90;;;;;;5014083;28;20021;-76
2020/12/18 02:37:23;;;;;;;28.00;13.05;;;-0.80;99.90;;;;;;5013404;28;20476;-76
2020/12/18 02:39:49;;;;;;;25.45;12.55;;;-0.70;99.90;;;;;;5014224;28;20075;-76
2020/12/18 02:42:14;;;;;;;24.77;12.38;;;-0.70;99.90;;;;;;5013931;28;20021;-77
2020/12/18 02:44:40;;;;;;;24.30;10.80;;;-0.60;99.90;;;;;;5013609;28;20017;-76
2020/12/18 02:47:05;;;;;;;23.77;11.80;;;-0.60;99.90;;;;;;5030917;28;20026;-77
2020/12/18 02:49:31;;;;;;;25.30;11.77;;;-0.70;99.90;;;;;;5013142;28;20025;-76
2020/12/18 02:51:57;;;;;;;28.60;12.45;;;-0.90;99.90;;;;;;5031545;28;20029;-76
2020/12/18 02:54:22;;;;;;;26.75;11.18;;;-0.90;99.90;;;;;;5013655;28;20108;-76
2020/12/18 02:56:48;;;;;;;27.10;11.85;;;-0.90;99.90;;;;;;5012879;28;20504;-76
2020/12/18 02:59:13;;;;;;;23.38;11.82;;;-1.00;99.90;;;;;;5031381;28;20124;-77
2020/12/18 03:01:39;;;;;;;27.63;13.30;;;-1.00;99.90;;;;;;5013765;28;20030;-76
2020/12/18 03:04:04;;;;;;;28.02;12.55;;;-1.00;99.90;;;;;;5013496;28;20075;-77
2020/12/18 03:06:30;;;;;;;26.75;12.05;;;-1.00;99.90;;;;;;5012807;28;20025;-76
2020/12/18 03:08:56;;;;;;;29.75;12.68;;;-1.00;99.90;;;;;;5031374;28;20072;-76
2020/12/18 03:11:21;;;;;;;24.77;11.82;;;-0.90;99.90;;;;;;5031151;28;20033;-76
2020/12/18 03:13:47;;;;;;;22.25;10.80;;;-1.00;99.90;;;;;;5028185;28;20013;-77
2020/12/18 03:16:13;;;;;;;21.85;11.30;;;-1.00;99.90;;;;;;5030271;28;20361;-76
2020/12/18 03:18:39;;;;;;;29.55;12.18;;;-0.90;99.90;;;;;;5030996;28;20030;-76
2020/12/18 03:21:05;;;;;;;27.05;12.82;;;-0.90;99.90;;;;;;5013404;28;20450;-77
2020/12/18 03:23:31;;;;;;;26.48;11.80;;;-1.00;99.90;;;;;;5013276;28;20121;-77
2020/12/18 03:25:57;;;;;;;22.73;11.65;;;-1.00;99.90;;;;;;5013152;28;20029;-76
2020/12/18 03:28:23;;;;;;;21.58;10.43;;;-1.00;99.90;;;;;;5030452;28;20439;-76
2020/12/18 03:30:48;;;;;;;23.58;11.55;;;-0.70;99.90;;;;;;5030812;28;20079;-76
2020/12/18 03:33:14;;;;;;;22.58;10.82;;;-0.80;99.90;;;;;;5031261;28;20026;-76
2020/12/18 03:35:39;;;;;;;21.88;11.32;;;-1.00;99.90;;;;;;5030791;28;20075;-76
2020/12/18 03:38:05;;;;;;;22.92;11.05;;;-0.90;99.90;;;;;;5030250;28;20033;-77
2020/12/18 03:40:31;;;;;;;21.75;10.30;;;-0.90;99.90;;;;;;5030794;28;20072;-76
2020/12/18 03:42:56;;;;;;;23.05;11.15;;;-1.00;99.90;;;;;;5012996;28;20179;-76
2020/12/18 03:45:22;;;;;;;22.30;10.90;;;-1.00;99.90;;;;;;5012937;28;20056;-76
2020/12/18 03:47:47;;;;;;;26.08;10.95;;;-1.00;99.90;;;;;;5012851;28;20033;-76
2020/12/18 03:50:13;;;;;;;25.00;11.10;;;-0.90;99.90;;;;;;5013253;28;20057;-76
2020/12/18 03:52:38;;;;;;;21.98;10.88;;;-0.90;99.90;;;;;;5012881;28;20025;-77
2020/12/18 03:55:04;;;;;;;24.42;11.52;;;-0.90;99.90;;;;;;5013079;28;20037;-77
2020/12/18 03:57:29;;;;;;;32.65;13.73;;;-1.00;99.90;;;;;;5029890;28;20084;-76
2020/12/18 03:59:55;;;;;;;23.33;11.18;;;-1.00;99.90;;;;;;5014180;28;20029;-76
2020/12/18 04:02:20;;;;;;;29.15;12.30;;;-1.10;99.90;;;;;;5034653;28;20033;-76
2020/12/18 04:04:46;;;;;;;28.00;12.52;;;-1.10;99.90;;;;;;5017007;28;20022;-76
2020/12/18 04:07:13;;;;;;;27.00;12.90;;;-1.10;99.90;;;;;;5016060;28;20032;-77
2020/12/18 04:09:40;;;;;;;32.97;13.07;;;-1.10;99.90;;;;;;5034304;28;20079;-77
2020/12/18 04:12:06;;;;;;;45.75;15.27;;;-1.00;99.90;;;;;;5016724;28;20025;-76
2020/12/18 04:14:32;;;;;;;49.45;15.85;;;-0.90;99.90;;;;;;5016579;28;20540;-76
2020/12/18 04:16:58;;;;;;;67.65;16.92;;;-0.80;99.90;;;;;;5033586;28;20123;-76
2020/12/18 04:19:24;;;;;;;103.50;18.08;;;-0.80;99.90;;;;;;5016687;28;20120;-77
2020/12/18 04:21:49;;;;;;;84.47;20.23;;;-0.60;99.90;;;;;;5034229;28;20079;-76
2020/12/18 04:24:15;;;;;;;86.70;17.92;;;-0.50;99.90;;;;;;5034250;28;20029;-76
2020/12/18 04:26:40;;;;;;;94.00;16.90;;;-0.30;99.90;;;;;;5015730;28;20018;-76
2020/12/18 04:29:06;;;;;;;91.10;16.88;;;-0.20;99.90;;;;;;5034216;28;20021;-77
2020/12/18 04:31:31;;;;;;;138.45;19.55;;;-0.20;99.90;;;;;;5016527;28;20387;-77
2020/12/18 04:33:57;;;;;;;81.10;18.45;;;-0.30;99.90;;;;;;5034111;28;20495;-76
2020/12/18 04:36:22;;;;;;;105.30;18.98;;;-0.40;99.90;;;;;;5033321;28;20017;-76
2020/12/18 04:38:48;;;;;;;54.55;17.13;;;-0.40;99.90;;;;;;5016304;28;20115;-77
2020/12/18 04:41:15;;;;;;;55.97;18.55;;;-0.40;99.90;;;;;;5016325;28;20029;-77
2020/12/18 04:43:41;;;;;;;67.95;19.73;;;-0.40;99.90;;;;;;5016246;28;20065;-76
2020/12/18 04:46:09;;;;;;;54.25;19.05;;;-0.40;99.90;;;;;;5015607;28;20056;-77
2020/12/18 04:48:36;;;;;;;90.32;21.98;;;-0.50;99.90;;;;;;5016044;28;20376;-76
2020/12/18 04:51:03;;;;;;;64.53;19.67;;;-0.50;99.90;;;;;;5033870;28;20071;-77
2020/12/18 04:53:32;;;;;;;61.75;20.38;;;-0.40;99.90;;;;;;5033936;28;20160;-77
2020/12/18 04:56:06;;;;;;;71.78;21.80;;;-0.40;99.90;;;;;;5015740;28;20025;-77
2020/12/18 04:58:33;;;;;;;60.08;21.52;;;-0.30;99.90;;;;;;5015990;28;20032;-77
2020/12/18 05:00:59;;;;;;;71.80;22.42;;;-0.20;99.90;;;;;;5016030;28;20391;-76
2020/12/18 05:03:25;;;;;;;67.60;21.42;;;-0.20;99.90;;;;;;5033787;28;20384;-77
2020/12/18 05:05:51;;;;;;;96.43;20.00;;;-0.20;99.90;;;;;;5015840;28;20061;-77
2020/12/18 05:08:16;;;;;;;76.95;19.73;;;0.00;99.90;;;;;;5015247;28;20060;-77
2020/12/18 05:10:42;;;;;;;69.78;19.48;;;0.00;99.90;;;;;;5015444;28;20128;-76
2020/12/18 05:13:07;;;;;;;86.00;21.42;;;0.00;99.90;;;;;;5015119;28;20021;-76
2020/12/18 05:15:34;;;;;;;64.43;20.95;;;0.20;99.90;;;;;;5033191;28;20036;-77
2020/12/18 05:17:59;;;;;;;108.60;23.60;;;0.20;99.90;;;;;;5015136;28;20044;-77
2020/12/18 05:20:26;;;;;;;98.32;22.42;;;0.10;99.90;;;;;;5033147;28;20142;-76
2020/12/18 05:22:53;;;;;;;121.97;24.13;;;0.10;99.90;;;;;;5015362;28;20033;-76
2020/12/18 05:25:19;;;;;;;154.73;24.20;;;0.10;99.90;;;;;;5015180;28;20022;-76
2020/12/18 05:27:45;;;;;;;86.30;19.60;;;0.20;99.90;;;;;;5014765;28;20021;-77
2020/12/18 05:30:11;;;;;;;120.90;23.23;;;0.40;99.90;;;;;;5015264;28;20037;-76
2020/12/18 05:32:37;;;;;;;120.60;20.80;;;0.50;99.90;;;;;;5015013;28;20021;-75
2020/12/18 05:35:04;;;;;;;140.07;25.13;;;0.60;99.90;;;;;;5018063;28;20030;-74
2020/12/18 05:37:39;;;;;;;94.13;22.20;;;0.50;99.90;;;;;;5050706;28;20021;-74
2020/12/18 05:40:06;;;;;;;84.50;21.40;;;0.40;99.90;;;;;;5038398;28;20020;-74
2020/12/18 05:42:46;;;;;;;115.75;22.50;;;0.50;99.90;;;;;;5031685;28;20036;-74
2020/12/18 05:45:16;;;;;;;41.03;17.60;;;0.40;99.90;;;;;;5052499;28;20368;-75
2020/12/18 05:47:52;;;;;;;;;;;0.40;99.90;;;;;;5052142;28;20083;-74
2020/12/18 05:50:18;;;;;;;36.55;15.90;;;0.40;99.90;;;;;;5052114;28;20371;-74
2020/12/18 05:52:54;;;;;;;38.47;17.30;;;0.30;99.90;;;;;;5034265;28;20107;-74
2020/12/18 05:55:19;;;;;;;34.50;16.33;;;0.40;99.90;;;;;;5052321;28;20415;-74
2020/12/18 05:57:45;;;;;;;34.55;16.75;;;0.30;99.90;;;;;;5033648;28;20035;-74
2020/12/18 06:00:11;;;;;;;35.67;16.70;;;0.40;99.90;;;;;;5045659;28;20550;-76
2020/12/18 06:02:40;;;;;;;36.90;17.55;;;0.70;99.90;;;;;;5032073;28;20476;-76
2020/12/18 06:05:05;;;;;;;36.63;15.85;;;0.60;99.90;;;;;;5014552;28;20038;-77
2020/12/18 06:07:37;;;;;;;32.97;15.05;;;0.70;99.90;;;;;;5014171;28;20053;-76
2020/12/18 06:10:03;;;;;;;34.22;16.33;;;0.80;99.90;;;;;;5014810;28;20206;-76
2020/12/18 06:12:29;;;;;;;30.55;14.55;;;0.80;99.90;;;;;;5014394;28;20021;-75
2020/12/18 06:14:55;;;;;;;32.83;16.02;;;0.80;99.90;;;;;;5032179;28;20273;-75
2020/12/18 06:17:27;;;;;;;31.63;16.13;;;0.90;99.90;;;;;;5031332;28;20036;-75
2020/12/18 06:19:56;;;;;;;35.92;18.45;;;1.00;99.90;;;;;;5016994;28;20033;-75
2020/12/18 06:22:22;;;;;;;36.93;17.80;;;1.00;99.90;;;;;;5022783;28;20033;-75
2020/12/18 06:24:47;;;;;;;32.50;16.85;;;1.00;99.90;;;;;;5031699;28;20022;-75
2020/12/18 06:27:16;;;;;;;35.92;17.55;;;1.10;99.90;;;;;;5031190;28;20447;-75
2020/12/18 06:29:42;;;;;;;34.17;18.25;;;0.90;99.90;;;;;;5013978;28;20124;-74
2020/12/18 06:32:29;;;;;;;37.00;18.35;;;0.90;99.90;;;;;;5044969;28;20108;-75
2020/12/18 06:35:30;;;;;;;33.97;17.80;;;0.90;99.90;;;;;;5051281;28;20032;-75
2020/12/18 06:37:58;;;;;;;39.78;18.70;;;0.80;99.90;;;;;;5033050;28;20026;-74
2020/12/18 06:40:31;;;;;;;37.92;19.42;;;0.70;99.90;;;;;;5051408;28;20057;-76
2020/12/18 06:42:58;;;;;;;40.28;19.27;;;0.60;99.90;;;;;;5033959;28;20025;-75
2020/12/18 06:45:25;;;;;;;49.33;21.00;;;0.40;99.90;;;;;;5051626;28;20024;-74
2020/12/18 06:47:51;;;;;;;47.60;20.83;;;0.30;99.90;;;;;;5050956;28;20017;-74
2020/12/18 06:50:17;;;;;;;51.80;20.75;;;0.30;99.90;;;;;;5033451;28;20017;-74
2020/12/18 06:52:57;;;;;;;43.95;19.42;;;0.40;99.90;;;;;;5033461;28;20103;-74
2020/12/18 06:55:26;;;;;;;65.88;27.38;;;0.30;99.90;;;;;;5051296;28;20387;-74
2020/12/18 06:58:18;;;;;;;57.95;26.58;;;0.40;99.90;;;;;;5031646;28;20041;-74
2020/12/18 07:00:52;;;;;;;57.70;28.60;;;0.50;99.90;;;;;;5046364;28;20055;-74
2020/12/18 07:03:38;;;;;;;44.80;23.88;;;0.50;99.90;;;;;;5051228;28;20590;-74
2020/12/18 07:06:10;;;;;;;43.75;22.23;;;0.70;99.90;;;;;;5032509;28;20151;-74
2020/12/18 07:08:37;;;;;;;39.83;21.83;;;0.70;99.90;;;;;;5033025;28;20021;-74
2020/12/18 07:11:11;;;;;;;42.50;21.70;;;0.70;99.90;;;;;;5033035;28;20109;-75
2020/12/18 07:13:40;;;;;;;47.38;23.90;;;0.70;99.90;;;;;;5050870;28;20028;-74
2020/12/18 07:16:10;;;;;;;42.13;21.42;;;0.70;99.90;;;;;;5050306;28;20036;-75
2020/12/18 07:18:39;;;;;;;54.33;30.33;;;0.70;99.90;;;;;;5050784;28;20486;-73
2020/12/18 07:21:08;;;;;;;35.58;21.15;;;0.80;99.90;;;;;;5033091;28;20025;-73
2020/12/18 07:23:37;;;;;;;43.72;25.75;;;0.90;99.90;;;;;;5050822;28;20021;-74
2020/12/18 07:26:04;;;;;;;41.15;24.92;;;1.00;99.90;;;;;;5032240;28;20028;-74
2020/12/18 07:28:30;;;;;;;38.30;18.88;;;0.90;99.90;;;;;;5032661;28;20033;-73
2020/12/18 07:30:58;;;;;;;39.08;19.33;;;0.90;99.90;;;;;;5033341;28;20083;-74
2020/12/18 07:33:24;;;;;;;60.85;24.00;;;0.90;99.90;;;;;;5032685;28;20021;-75
2020/12/18 07:35:52;;;;;;;61.38;24.30;;;0.90;99.90;;;;;;5032191;28;20082;-75
2020/12/18 07:38:32;;;;;;;48.20;21.88;;;0.90;99.90;;;;;;5049937;28;20056;-73
2020/12/18 07:41:03;;;;;;;50.92;22.70;;;0.90;99.90;;;;;;5050647;28;20025;-75
2020/12/18 07:43:31;;;;;;;49.13;24.30;;;0.90;99.90;;;;;;5032662;28;20029;-75
2020/12/18 07:45:58;;;;;;;48.38;24.95;;;1.00;99.90;;;;;;5050386;28;20104;-74
2020/12/18 07:48:27;;;;;;;55.72;27.17;;;1.00;99.90;;;;;;5050228;28;20035;-75
2020/12/18 07:50:57;;;;;;;52.72;29.27;;;1.10;99.90;;;;;;5032502;28;20032;-74
2020/12/18 07:53:22;;;;;;;49.97;26.25;;;1.10;99.90;;;;;;5050489;28;20427;-74
2020/12/18 07:56:02;;;;;;;48.00;23.85;;;1.10;99.90;;;;;;5050406;28;20087;-75
2020/12/18 07:58:29;;;;;;;45.15;23.83;;;1.10;99.90;;;;;;5031306;28;20032;-74
2020/12/18 08:01:12;;;;;;;47.72;23.75;;;1.20;99.90;;;;;;5050407;28;20116;-75
2020/12/18 08:03:39;;;;;;;51.67;24.35;;;1.20;99.90;;;;;;5032568;28;20563;-74
2020/12/18 08:06:12;;;;;;;53.13;31.58;;;1.20;99.90;;;;;;5049714;28;20152;-74
2020/12/18 08:08:38;;;;;;;51.38;27.95;;;1.30;99.90;;;;;;5050259;28;20039;-74
2020/12/18 08:11:03;;;;;;;50.65;31.77;;;1.40;99.90;;;;;;5050273;28;20534;-74
2020/12/18 08:13:31;;;;;;;51.40;31.05;;;1.40;99.90;;;;;;5032457;28;20102;-74
2020/12/18 08:16:20;;;;;;;51.72;29.85;;;1.50;99.90;;;;;;5050110;28;20181;-74
2020/12/18 08:18:52;;;;;;;45.90;25.08;;;1.50;99.90;;;;;;5020164;28;20033;-74
2020/12/18 08:21:23;;;;;;;45.72;26.90;;;1.60;99.90;;;;;;5032335;28;20029;-74
2020/12/18 08:23:54;;;;;;;49.72;27.45;;;1.50;99.90;;;;;;5032221;28;20107;-74
2020/12/18 08:26:23;;;;;;;44.97;25.67;;;1.50;99.90;;;;;;5031618;28;20072;-74
2020/12/18 08:28:49;;;;;;;54.38;29.67;;;1.50;99.90;;;;;;5032254;28;20510;-74
2020/12/18 08:31:16;;;;;;;49.63;25.90;;;1.40;99.90;;;;;;5050285;28;20099;-74
2020/12/18 08:33:55;;;;;;;78.15;48.47;;;1.50;99.90;;;;;;5032313;28;20035;-74
2020/12/18 08:36:23;;;;;;;48.85;25.50;;;1.50;99.90;;;;;;5049404;28;20284;-75
2020/12/18 08:39:05;;;;;;;43.17;24.15;;;1.60;99.90;;;;;;5032458;28;20018;-75
2020/12/18 08:41:45;;;;;;;38.40;20.80;;;1.50;99.90;;;;;;5032643;28;20032;-74
2020/12/18 08:44:19;;;;;;;39.20;21.25;;;1.50;99.90;;;;;;5032502;28;20391;-75
2020/12/18 08:46:45;;;;;;;46.90;22.48;;;1.40;99.90;;;;;;5050476;28;20476;-75
2020/12/18 08:49:22;;;;;;;47.03;25.67;;;1.50;99.90;;;;;;5036241;28;20497;-75
2020/12/18 08:51:50;;;;;;;54.70;31.08;;;1.50;99.90;;;;;;5054142;28;20017;-75
2020/12/18 08:54:27;;;;;;;51.38;26.83;;;1.60;99.90;;;;;;5035903;28;20491;-75
2020/12/18 08:57:14;;;;;;;47.38;27.05;;;1.50;99.90;;;;;;5035098;28;20028;-74
2020/12/18 08:59:53;;;;;;;51.92;29.00;;;1.40;99.90;;;;;;5052636;28;20024;-75
2020/12/18 09:02:19;;;;;;;53.83;30.85;;;1.30;99.90;;;;;;5035585;28;20025;-75
2020/12/18 09:04:44;;;;;;;60.90;29.95;;;1.50;99.90;;;;;;5035409;28;20445;-74
2020/12/18 09:07:10;;;;;;;61.88;28.05;;;1.40;99.90;;;;;;5034794;28;20533;-75
2020/12/18 09:09:35;;;;;;;56.55;27.73;;;1.30;99.90;;;;;;5052853;28;20070;-74
2020/12/18 09:12:14;;;;;;;51.08;29.00;;;1.30;99.90;;;;;;5053162;28;20029;-74
2020/12/18 09:14:40;;;;;;;48.33;26.33;;;1.20;99.90;;;;;;5035094;28;20028;-75
2020/12/18 09:17:05;;;;;;;47.83;27.58;;;1.40;99.90;;;;;;5052223;28;20063;-74
2020/12/18 09:19:33;;;;;;;56.78;32.80;;;1.40;99.90;;;;;;5035053;28;20537;-74
2020/12/18 09:22:05;;;;;;;65.03;34.63;;;1.50;99.90;;;;;;5052966;28;20075;-74
2020/12/18 09:24:31;;;;;;;63.53;35.80;;;1.50;99.90;;;;;;5052794;28;20025;-74
2020/12/18 09:27:10;;;;;;;121.47;65.13;;;1.50;99.90;;;;;;5052047;28;20028;-74
2020/12/18 09:29:39;;;;;;;139.75;70.75;;;1.50;99.90;;;;;;5034997;28;20108;-74
2020/12/18 09:32:05;;;;;;;103.95;55.72;;;1.50;99.90;;;;;;5034977;28;20044;-74
2020/12/18 09:34:32;;;;;;;114.57;73.15;;;1.60;99.90;;;;;;5052627;28;20036;-74
2020/12/18 09:36:58;;;;;;;125.68;81.03;;;1.70;99.90;;;;;;5034072;28;20033;-74
2020/12/18 09:39:24;;;;;;;98.93;63.30;;;1.70;99.90;;;;;;5052787;28;20285;-74
2020/12/18 09:41:51;;;;;;;96.20;58.97;;;1.80;99.90;;;;;;5034669;28;20475;-73
2020/12/18 09:44:25;;;;;;;199.45;110.25;;;1.70;99.90;;;;;;5034569;28;20029;-74
2020/12/18 09:46:51;;;;;;;79.75;53.05;;;1.60;99.90;;;;;;5051942;28;20029;-74
2020/12/18 09:49:17;;;;;;;70.32;49.83;;;1.60;99.90;;;;;;5034390;28;20025;-74
2020/12/18 09:51:46;;;;;;;44.75;30.08;;;1.70;99.90;;;;;;5034508;28;20025;-74
2020/12/18 09:54:11;;;;;;;56.70;43.15;;;1.70;99.90;;;;;;5034629;28;20053;-74
2020/12/18 09:56:37;;;;;;;40.58;27.30;;;1.80;99.90;;;;;;5051653;28;20547;-74
2020/12/18 09:59:02;;;;;;;49.00;31.17;;;1.80;99.90;;;;;;5033170;28;20025;-74
2020/12/18 10:01:28;;;;;;;40.00;24.83;;;2.00;99.90;;;;;;5034293;28;20025;-74
2020/12/18 10:03:53;;;;;;;44.20;25.42;;;2.00;99.90;;;;;;5034236;28;20013;-74
2020/12/18 10:06:25;;;;;;;42.88;26.00;;;2.10;99.90;;;;;;5033580;28;20509;-74
2020/12/18 10:08:51;;;;;;;71.65;51.80;;;2.10;99.90;;;;;;5034354;28;20028;-74
2020/12/18 10:11:17;;;;;;;52.53;29.85;;;2.20;99.90;;;;;;5034106;28;20033;-74
2020/12/18 10:13:43;;;;;;;62.17;36.67;;;2.30;99.90;;;;;;5052393;28;20021;-73
2020/12/18 10:16:09;;;;;;;43.15;24.40;;;2.30;99.90;;;;;;5051054;28;20064;-73
2020/12/18 10:18:34;;;;;;;49.00;28.85;;;2.30;99.90;;;;;;5052373;28;20052;-74
2020/12/18 10:21:03;;;;;;;89.20;50.10;;;2.40;99.90;;;;;;5034148;28;20119;-74
2020/12/18 10:23:29;;;;;;;61.40;36.53;;;2.50;99.90;;;;;;5051971;28;20029;-74
2020/12/18 10:25:54;;;;;;;63.78;36.67;;;2.70;99.90;;;;;;5051598;28;20025;-74
2020/12/18 10:28:20;;;;;;;64.60;36.85;;;2.70;99.90;;;;;;5051172;28;20056;-74
2020/12/18 10:30:45;;;;;;;45.28;27.70;;;2.80;99.90;;;;;;5051636;28;20052;-74
2020/12/18 10:33:11;;;;;;;38.38;19.33;;;2.80;99.90;;;;;;5033762;28;20031;-74
2020/12/18 10:35:36;;;;;;;30.55;16.23;;;2.90;99.90;;;;;;5051485;28;20033;-74
2020/12/18 10:38:02;;;;;;;33.65;17.77;;;2.90;99.90;;;;;;5051255;28;20028;-74
2020/12/18 10:40:27;;;;;;;34.40;17.77;;;2.90;99.90;;;;;;5051574;28;20414;-72
2020/12/18 10:42:54;;;;;;;26.00;14.35;;;3.00;99.90;;;;;;5051516;28;20475;-73
2020/12/18 10:45:20;;;;;;;34.40;17.35;;;3.10;99.90;;;;;;5033760;28;20029;-74
2020/12/18 10:47:45;;;;;;;45.30;22.75;;;3.10;99.90;;;;;;5033311;28;20494;-75
2020/12/18 10:50:11;;;;;;;29.58;15.90;;;3.30;99.90;;;;;;5033703;28;20484;-74
2020/12/18 10:52:37;;;;;;;31.98;17.80;;;3.20;99.90;;;;;;5051305;28;20469;-74
2020/12/18 10:55:02;;;;;;;30.45;17.23;;;3.20;99.90;;;;;;5051371;28;20067;-74
2020/12/18 10:57:28;;;;;;;43.13;27.42;;;3.10;99.90;;;;;;5050525;28;20487;-73
2020/12/18 10:59:53;;;;;;;27.35;14.02;;;3.30;99.90;;;;;;5051200;28;20491;-73
2020/12/18 11:02:19;;;;;;;25.92;13.00;;;3.30;99.90;;;;;;5033270;28;20025;-73
2020/12/18 11:04:44;;;;;;;44.92;29.17;;;3.40;99.90;;;;;;5033149;28;20395;-74
2020/12/18 11:07:10;;;;;;;28.08;16.05;;;3.60;99.90;;;;;;5032695;28;20403;-73
2020/12/18 11:09:36;;;;;;;24.13;13.65;;;3.70;99.90;;;;;;5032703;28;20171;-74
2020/12/18 11:12:02;;;;;;;43.30;28.02;;;3.70;99.90;;;;;;5051618;28;20067;-73
2020/12/18 11:14:27;;;;;;;22.52;12.13;;;4.20;99.90;;;;;;5033761;28;20024;-74
2020/12/18 11:16:55;;;;;;;20.17;10.55;;;4.30;99.90;;;;;;5032175;28;20040;-75
2020/12/18 11:19:21;;;;;;;20.75;10.52;;;4.40;99.90;;;;;;5032952;28;20029;-74
2020/12/18 11:21:47;;;;;;;18.80;9.02;;;4.70;99.90;;;;;;5050787;28;20277;-75
2020/12/18 11:24:12;;;;;;;16.65;8.90;;;4.80;99.90;;;;;;5033152;28;20387;-74
2020/12/18 11:26:38;;;;;;;31.00;16.00;;;4.90;99.90;;;;;;5049851;28;20024;-75
2020/12/18 11:29:04;;;;;;;39.40;16.00;;;5.40;99.90;;;;;;5050615;28;20013;-75
2020/12/18 11:31:30;;;;;;;26.95;15.68;;;5.50;99.90;;;;;;5032811;28;20047;-75
2020/12/18 11:33:56;;;;;;;28.02;13.50;;;5.50;99.90;;;;;;5032760;28;20021;-75
2020/12/18 11:36:21;;;;;;;23.98;13.50;;;5.60;99.90;;;;;;5032064;28;20386;-75
2020/12/18 11:38:47;;;;;;;23.58;12.32;;;5.60;99.90;;;;;;5032686;28;20031;-75
2020/12/18 11:41:18;;;;;;;45.78;25.73;;;5.70;99.90;;;;;;5050660;28;20093;-75
2020/12/18 11:43:44;;;;;;;15.68;8.57;;;5.90;99.90;;;;;;5050546;28;20108;-75
2020/12/18 11:46:09;;;;;;;21.70;10.45;;;6.00;99.90;;;;;;5049701;28;20326;-75
2020/12/18 11:48:35;;;;;;;18.83;9.35;;;5.90;99.90;;;;;;5050289;28;20394;-75
2020/12/18 11:51:00;;;;;;;20.40;12.07;;;5.80;99.90;;;;;;5050419;28;20654;-75
2020/12/18 11:53:26;;;;;;;15.32;8.23;;;5.50;99.90;;;;;;5032765;28;20491;-74
2020/12/18 11:55:51;;;;;;;14.30;8.55;;;5.30;99.90;;;;;;5032418;28;20032;-75
2020/12/18 11:58:17;;;;;;;17.17;9.40;;;5.10;99.90;;;;;;5031676;28;20064;-75
2020/12/18 12:00:43;;;;;;;15.43;8.10;;;4.90;99.90;;;;;;5032363;28;20029;-74
2020/12/18 12:03:08;;;;;;;18.65;9.63;;;4.80;99.90;;;;;;5050317;28;20453;-74
2020/12/18 12:05:35;;;;;;;16.70;9.13;;;4.80;99.90;;;;;;5032229;28;20029;-74
2020/12/18 12:08:00;;;;;;;18.63;9.75;;;4.70;99.90;;;;;;5049673;28;20047;-74
2020/12/18 12:10:27;;;;;;;18.17;9.32;;;4.70;99.90;;;;;;5032335;28;20052;-74
2020/12/18 12:12:52;;;;;;;21.38;10.15;;;4.80;99.90;;;;;;5032320;28;20018;-74
2020/12/18 12:15:18;;;;;;;17.20;9.02;;;4.80;99.90;;;;;;5032427;28;20039;-75
2020/12/18 12:17:44;;;;;;;17.52;8.13;;;4.90;99.90;;;;;;5031666;28;20036;-75
2020/12/18 12:20:09;;;;;;;16.30;8.70;;;4.80;99.90;;;;;;5050692;28;20095;-75
2020/12/18 12:22:37;;;;;;;14.30;7.95;;;4.70;99.90;;;;;;5054390;28;20061;-75
2020/12/18 12:25:02;;;;;;;19.17;8.30;;;4.70;99.90;;;;;;5036523;28;20037;-75
2020/12/18 12:27:27;;;;;;;16.23;7.82;;;4.60;99.90;;;;;;5054018;28;20048;-75
2020/12/18 12:29:54;;;;;;;35.42;16.55;;;4.50;99.90;;;;;;5036859;28;20021;-75
2020/12/18 12:32:20;;;;;;;22.30;10.38;;;4.50;99.90;;;;;;5054703;28;20025;-75
2020/12/18 12:34:46;;;;;;;20.33;8.70;;;4.50;99.90;;;;;;5036299;28;20094;-75